Time;durP1;ratioP1;P1;durP2;ratioP2;P2;SDS_P1;SDS_P2;PMS_P1;PMS_P2;Temp;Humidity;BMP_temperature;BMP_pressure;BME280_temperature;BME280_humidity;BME280_pressure;Samples;Min_cycle;Max_cycle;Signal;HPM_P1;HPM_P2
2023/12/16 00:00:01;;;;;;;3.42;1.38;;;;;;;0.43;77.73;101929.84;5083929;28;20052;-72
2023/12/16 00:02:28;;;;;;;4.03;1.30;;;;;;;0.44;77.27;101932.47;5090261;28;20133;-72
2023/12/16 00:04:55;;;;;;;5.60;2.35;;;;;;;0.43;77.62;101933.28;5085557;28;20087;-72
2023/12/16 00:07:23;;;;;;;6.20;1.90;;;;;;;0.44;77.78;101932.47;5093320;28;20131;-72
2023/12/16 00:09:50;;;;;;;3.45;1.15;;;;;;;0.44;77.53;101932.47;5081170;28;20098;-72
2023/12/16 00:12:18;;;;;;;2.22;1.58;;;;;;;0.46;77.26;101942.84;5087334;28;20048;-72
2023/12/16 00:14:45;;;;;;;1.95;0.98;;;;;;;0.47;77.23;101939.44;5086699;28;20098;-72
2023/12/16 00:17:13;;;;;;;2.95;1.10;;;;;;;0.48;77.90;101936.03;5085902;28;20095;-72
2023/12/16 00:19:40;;;;;;;2.55;1.25;;;;;;;0.48;77.51;101942.06;5081120;28;20044;-72
2023/12/16 00:22:07;;;;;;;1.92;1.08;;;;;;;0.49;77.42;101940.38;5086152;28;20486;-72
2023/12/16 00:24:35;;;;;;;2.42;1.33;;;;;;;0.49;77.16;101938.66;5082815;28;20052;-73
2023/12/16 00:27:02;;;;;;;4.25;1.17;;;;;;;0.50;77.76;101937.84;5087312;28;20097;-72
2023/12/16 00:29:29;;;;;;;2.70;1.17;;;;;;;0.50;77.39;101932.69;5085497;28;20132;-72
2023/12/16 00:31:56;;;;;;;6.43;1.45;;;;;;;0.51;77.81;101923.28;5084514;28;20048;-72
2023/12/16 00:34:23;;;;;;;2.00;1.10;;;;;;;0.50;77.79;101919.81;5083692;28;20173;-72
2023/12/16 00:36:50;;;;;;;1.15;0.90;;;;;;;0.51;77.71;101924.16;5086905;28;20076;-73
2023/12/16 00:39:17;;;;;;;2.17;1.00;;;;;;;0.52;77.75;101914.72;5084210;28;20087;-72
2023/12/16 00:41:45;;;;;;;2.20;1.50;;;;;;;0.53;77.09;101907.03;5082315;28;20047;-72
2023/12/16 00:44:12;;;;;;;2.33;0.98;;;;;;;0.53;77.49;101901.91;5083378;28;20398;-72
2023/12/16 00:46:39;;;;;;;2.42;1.17;;;;;;;0.54;77.57;101898.53;5091185;28;20122;-72
2023/12/16 00:49:06;;;;;;;3.22;1.48;;;;;;;0.50;76.99;101893.19;5084031;28;20110;-72
2023/12/16 00:51:33;;;;;;;1.88;0.90;;;;;;;0.54;77.08;101900.22;5079154;28;20125;-71
2023/12/16 00:54:00;;;;;;;2.75;0.80;;;;;;;0.55;77.08;101900.25;5084605;28;20040;-71
2023/12/16 00:56:27;;;;;;;1.85;0.85;;;;;;;0.56;77.48;101901.13;5079995;28;20040;-71
2023/12/16 00:58:56;;;;;;;2.75;1.10;;;;;;;0.56;77.60;101902.00;5080943;28;20519;-71
2023/12/16 01:01:24;;;;;;;3.30;0.98;;;;;;;0.55;77.65;101897.69;5082841;28;20048;-71
2023/12/16 01:03:51;;;;;;;2.38;1.40;;;;;;;0.56;77.49;101912.31;5087420;28;20044;-71
2023/12/16 01:06:17;;;;;;;1.15;0.55;;;;;;;0.58;77.17;101913.25;5086643;28;20091;-71
2023/12/16 01:08:44;;;;;;;1.63;0.60;;;;;;;0.57;77.15;101908.06;5084455;28;20086;-71
2023/12/16 01:11:12;;;;;;;2.25;0.90;;;;;;;0.57;77.58;101921.81;5082596;28;20541;-76
2023/12/16 01:13:39;;;;;;;1.90;0.73;;;;;;;0.58;77.36;101918.41;5085770;28;20417;-76
2023/12/16 01:16:09;;;;;;;2.85;0.90;;;;;;;0.54;77.18;101908.81;5084248;28;20078;-76
2023/12/16 01:18:35;;;;;;;1.65;0.77;;;;;;;0.58;77.55;101920.97;5080538;28;20044;-76
2023/12/16 01:21:05;;;;;;;7.00;2.13;;;;;;;0.60;77.61;101923.63;5081416;28;20044;-76
2023/12/16 01:23:33;;;;;;;2.60;0.90;;;;;;;0.60;77.30;101915.91;5082521;28;20052;-75
2023/12/16 01:26:00;;;;;;;2.88;1.27;;;;;;;0.60;77.65;101915.03;5078670;28;20048;-76
2023/12/16 01:28:26;;;;;;;1.00;0.55;;;;;;;0.61;77.34;101920.22;5080412;28;20067;-76
2023/12/16 01:30:53;;;;;;;1.40;0.77;;;;;;;0.61;77.37;101920.22;5087075;28;20098;-76
2023/12/16 01:33:22;;;;;;;1.83;0.55;;;;;;;0.61;77.70;101920.22;5085133;28;20102;-76
2023/12/16 01:35:49;;;;;;;2.88;0.68;;;;;;;0.59;77.58;101911.53;5084991;28;20075;-76
2023/12/16 01:38:16;;;;;;;1.67;0.68;;;;;;;0.62;77.67;101908.22;5082782;28;20049;-76
2023/12/16 01:40:43;;;;;;;1.65;0.77;;;;;;;0.56;77.57;101903.72;5080550;28;20087;-76
2023/12/16 01:43:10;;;;;;;1.75;0.68;;;;;;;0.62;77.55;101923.66;5087297;28;20486;-76
2023/12/16 01:45:37;;;;;;;2.13;0.43;;;;;;;0.63;77.26;101935.75;5087452;28;20041;-76
2023/12/16 01:48:06;;;;;;;1.10;0.70;;;;;;;0.63;77.76;101939.19;5089425;28;20087;-76
2023/12/16 01:50:35;;;;;;;0.55;0.40;;;;;;;0.65;77.40;101957.25;5084177;28;20453;-76
2023/12/16 01:53:04;;;;;;;3.08;0.50;;;;;;;0.64;77.32;101963.22;5078361;28;20052;-76
2023/12/16 01:55:32;;;;;;;2.22;0.57;;;;;;;0.65;77.23;101952.09;5080332;28;20482;-76
2023/12/16 01:58:00;;;;;;;3.45;0.63;;;;;;;0.65;77.72;101946.94;5088992;28;20383;-76
2023/12/16 02:00:29;;;;;;;1.65;0.60;;;;;;;0.66;77.56;101946.16;5081096;28;20406;-73
2023/12/16 02:02:56;;;;;;;2.72;0.52;;;;;;;0.66;77.27;101943.56;5088918;28;20036;-74
2023/12/16 02:05:23;;;;;;;4.15;0.50;;;;;;;0.67;77.67;101940.16;5084450;28;20469;-74
2023/12/16 02:07:52;;;;;;;1.55;0.50;;;;;;;0.67;77.39;101935.88;5093583;28;20101;-74
2023/12/16 02:10:19;;;;;;;1.08;0.55;;;;;;;0.68;77.68;101936.75;5094021;28;20071;-74
2023/12/16 02:12:46;;;;;;;4.25;0.80;;;;;;;0.68;77.61;101936.75;5082798;28;20565;-74
2023/12/16 02:15:13;;;;;;;1.50;0.60;;;;;;;0.68;77.42;101942.81;5083667;28;20076;-73
2023/12/16 02:17:40;;;;;;;1.00;0.50;;;;;;;0.68;77.50;101940.25;5079199;28;20044;-76
2023/12/16 02:20:08;;;;;;;7.20;1.35;;;;;;;0.67;77.45;101933.31;5080018;28;20072;-74
2023/12/16 02:22:35;;;;;;;2.15;0.47;;;;;;;0.66;77.33;101928.13;5084637;28;20039;-74
2023/12/16 02:25:04;;;;;;;1.45;0.40;;;;;;;0.62;77.76;101921.09;5082409;28;20087;-73
2023/12/16 02:27:31;;;;;;;1.63;0.60;;;;;;;0.71;77.35;101947.19;5082931;28;20524;-74
2023/12/16 02:29:57;;;;;;;2.15;0.75;;;;;;;0.70;77.42;101954.03;5083575;28;20482;-74
2023/12/16 02:32:24;;;;;;;2.58;0.70;;;;;;;0.70;77.70;101948.00;5082389;28;20080;-73
2023/12/16 02:34:51;;;;;;;6.28;0.95;;;;;;;0.71;77.57;101952.34;5080642;28;20495;-74
2023/12/16 02:37:18;;;;;;;4.15;0.70;;;;;;;0.71;77.88;101957.50;5088423;28;20079;-73
2023/12/16 02:39:45;;;;;;;4.30;0.90;;;;;;;0.72;77.84;101954.97;5081016;28;20079;-73
2023/12/16 02:42:14;;;;;;;4.75;0.95;;;;;;;0.71;77.82;101958.38;5079765;28;20052;-73
2023/12/16 02:44:41;;;;;;;2.03;0.50;;;;;;;0.70;77.70;101951.44;5085376;28;20041;-73
2023/12/16 02:47:08;;;;;;;5.25;0.50;;;;;;;0.73;77.47;101955.84;5080718;28;20458;-74
2023/12/16 02:49:35;;;;;;;1.10;0.50;;;;;;;0.73;77.54;101945.53;5079997;28;20044;-74
2023/12/16 02:52:02;;;;;;;3.60;1.40;;;;;;;0.73;77.74;101953.25;5085984;28;20063;-74
2023/12/16 02:54:29;;;;;;;2.00;0.57;;;;;;;0.72;77.42;101954.09;5081939;28;20080;-74
2023/12/16 02:56:56;;;;;;;2.50;0.50;;;;;;;0.73;78.01;101958.41;5085696;28;20079;-74
2023/12/16 02:59:25;;;;;;;3.30;0.68;;;;;;;0.74;77.90;101958.47;5091508;28;20498;-74
2023/12/16 03:01:52;;;;;;;4.38;0.80;;;;;;;0.70;77.91;101951.44;5086305;28;20124;-74
2023/12/16 03:04:19;;;;;;;4.90;0.77;;;;;;;0.73;77.80;101955.84;5081446;28;20040;-74
2023/12/16 03:06:46;;;;;;;3.80;0.47;;;;;;;0.76;77.67;101966.25;5085060;28;20101;-74
2023/12/16 03:09:13;;;;;;;1.95;0.50;;;;;;;0.75;77.58;101967.97;5088966;28;20057;-75
2023/12/16 03:11:40;;;;;;;1.27;0.57;;;;;;;0.74;77.83;101958.47;5089207;28;20482;-71
2023/12/16 03:14:07;;;;;;;2.47;0.80;;;;;;;0.76;77.91;101966.25;5081764;28;20510;-71
2023/12/16 03:16:36;;;;;;;5.72;0.60;;;;;;;0.75;77.81;101965.38;5089635;28;20048;-70
2023/12/16 03:19:03;;;;;;;5.93;0.77;;;;;;;0.76;77.87;101961.97;5084168;28;20041;-71
2023/12/16 03:21:31;;;;;;;8.43;0.80;;;;;;;0.75;78.06;101960.22;5081431;28;20452;-71
2023/12/16 03:23:58;;;;;;;5.72;0.90;;;;;;;0.79;77.97;101968.94;5089188;28;20455;-69
2023/12/16 03:26:25;;;;;;;8.85;1.10;;;;;;;0.79;77.80;101961.22;5084941;28;20136;-69
2023/12/16 03:28:52;;;;;;;4.85;0.60;;;;;;;0.79;78.04;101971.50;5086197;28;20486;-71
2023/12/16 03:31:19;;;;;;;4.80;0.90;;;;;;;0.78;77.77;101970.66;5083384;28;20075;-75
2023/12/16 03:33:47;;;;;;;4.93;0.75;;;;;;;0.77;77.97;101973.19;5086312;28;20505;-75
2023/12/16 03:36:14;;;;;;;2.30;0.63;;;;;;;0.80;78.20;101969.00;5079996;28;20076;-76
2023/12/16 03:38:42;;;;;;;2.25;0.93;;;;;;;0.81;78.30;101972.47;5088001;28;20083;-75
2023/12/16 03:41:09;;;;;;;2.75;0.90;;;;;;;0.83;78.21;101978.56;5085970;28;20046;-75
2023/12/16 03:43:36;;;;;;;7.50;0.70;;;;;;;0.83;77.94;101962.22;5091734;28;20101;-76
2023/12/16 03:46:03;;;;;;;4.63;0.80;;;;;;;0.84;78.18;101962.25;5086379;28;20072;-76
2023/12/16 03:48:30;;;;;;;6.70;0.70;;;;;;;0.84;78.27;101962.25;5088537;28;20406;-76
2023/12/16 03:50:59;;;;;;;6.85;0.73;;;;;;;0.85;77.68;101965.72;5088621;28;20114;-76
2023/12/16 03:53:26;;;;;;;4.25;0.65;;;;;;;0.86;77.86;101958.06;5095042;28;20115;-76
2023/12/16 03:55:54;;;;;;;5.35;0.60;;;;;;;0.87;78.30;101957.22;5086377;28;20086;-75
2023/12/16 03:58:20;;;;;;;4.53;1.00;;;;;;;0.86;78.33;101963.19;5083174;28;20044;-76
2023/12/16 04:00:47;;;;;;;6.20;1.60;;;;;;;0.87;78.07;101962.38;5092885;28;20528;-75
2023/12/16 04:03:14;;;;;;;4.82;1.05;;;;;;;0.87;77.97;101958.91;5091592;28;20467;-75
2023/12/16 04:05:42;;;;;;;1.95;0.80;;;;;;;0.88;77.86;101958.09;5092779;28;20124;-75
2023/12/16 04:08:10;;;;;;;4.13;0.68;;;;;;;0.88;78.27;101956.41;5082809;28;20044;-75
2023/12/16 04:10:37;;;;;;;5.07;0.50;;;;;;;0.89;77.88;101959.88;5083104;28;20171;-76
2023/12/16 04:13:04;;;;;;;4.30;0.40;;;;;;;0.89;78.15;101950.44;5085020;28;20081;-76
2023/12/16 04:15:32;;;;;;;2.45;0.60;;;;;;;0.87;77.83;101953.78;5085333;28;20048;-75
2023/12/16 04:17:58;;;;;;;6.45;0.82;;;;;;;0.87;78.13;101949.47;5088708;28;20071;-75
2023/12/16 04:20:28;;;;;;;2.28;0.82;;;;;;;0.90;78.11;101954.75;5080146;28;20072;-75
2023/12/16 04:22:56;;;;;;;4.97;0.60;;;;;;;0.89;78.10;101958.16;5090691;28;20128;-75
2023/12/16 04:25:24;;;;;;;5.05;0.70;;;;;;;0.89;77.94;101950.44;5089247;28;20082;-75
2023/12/16 04:27:51;;;;;;;5.43;0.70;;;;;;;0.89;78.01;101950.44;5090463;28;20040;-75
2023/12/16 04:30:18;;;;;;;2.28;0.82;;;;;;;0.89;78.34;101947.84;5089842;28;20051;-75
2023/12/16 04:32:45;;;;;;;9.95;1.25;;;;;;;0.90;78.16;101938.41;5079902;28;20071;-75
2023/12/16 04:35:12;;;;;;;4.10;0.68;;;;;;;0.86;78.17;101927.13;5086934;28;20137;-75
2023/12/16 04:37:40;;;;;;;5.38;0.50;;;;;;;0.91;78.34;101930.75;5091682;28;20094;-75
2023/12/16 04:40:08;;;;;;;3.40;0.68;;;;;;;0.91;78.49;101930.75;5091503;28;20074;-72
2023/12/16 04:42:37;;;;;;;7.90;2.80;;;;;;;0.91;78.22;101925.59;5082709;28;20104;-71
2023/12/16 04:45:04;;;;;;;3.35;0.65;;;;;;;0.91;78.41;101925.59;5083262;28;20465;-71
2023/12/16 04:47:31;;;;;;;2.13;0.57;;;;;;;0.92;78.10;101916.16;5086680;28;20118;-72
2023/12/16 04:49:58;;;;;;;1.30;0.50;;;;;;;0.92;78.35;101927.34;5087299;28;20113;-71
2023/12/16 04:52:25;;;;;;;5.40;0.60;;;;;;;0.92;78.67;101917.03;5084805;28;20048;-71
2023/12/16 04:54:52;;;;;;;3.83;0.52;;;;;;;0.89;78.24;101911.78;5085832;28;20044;-71
2023/12/16 04:57:19;;;;;;;5.72;0.73;;;;;;;0.93;78.08;101908.47;5091349;28;20044;-71
2023/12/16 04:59:48;;;;;;;8.60;0.50;;;;;;;0.94;78.47;101917.09;5086993;28;20575;-73
2023/12/16 05:02:15;;;;;;;4.82;0.55;;;;;;;0.93;78.17;101917.91;5092320;28;20080;-71
2023/12/16 05:04:41;;;;;;;4.88;0.50;;;;;;;0.92;78.21;101917.03;5085175;28;20095;-71
2023/12/16 05:07:09;;;;;;;13.40;0.70;;;;;;;0.95;78.17;101922.28;5082701;28;20511;-71
2023/12/16 05:09:35;;;;;;;5.18;0.70;;;;;;;0.94;78.32;101919.69;5091553;28;20123;-71
2023/12/16 05:12:02;;;;;;;4.15;0.70;;;;;;;0.95;78.45;101906.84;5085813;28;20473;-71
2023/12/16 05:14:30;;;;;;;6.22;0.60;;;;;;;0.95;78.68;101912.00;5083045;28;20083;-71
2023/12/16 05:17:00;;;;;;;4.40;0.50;;;;;;;0.92;78.70;101891.25;5084938;28;20048;-71
2023/12/16 05:19:27;;;;;;;5.93;1.13;;;;;;;0.93;78.35;101892.13;5083359;28;20048;-71
2023/12/16 05:21:54;;;;;;;8.05;1.23;;;;;;;0.97;78.43;101888.88;5089640;28;20505;-71
2023/12/16 05:24:21;;;;;;;4.82;0.57;;;;;;;0.97;78.26;101894.88;5087666;28;20074;-72
2023/12/16 05:26:48;;;;;;;5.80;0.80;;;;;;;0.97;78.59;101896.59;5083534;28;20068;-72
2023/12/16 05:29:15;;;;;;;5.72;0.50;;;;;;;0.98;78.58;101900.91;5082982;28;20462;-72
2023/12/16 05:31:42;;;;;;;3.05;0.50;;;;;;;0.97;78.24;101900.03;5091382;28;20040;-69
2023/12/16 05:34:10;;;;;;;6.40;0.50;;;;;;;0.98;78.66;101906.06;5081918;28;20071;-70
2023/12/16 05:36:37;;;;;;;2.33;0.47;;;;;;;0.96;78.65;101903.44;5084181;28;20044;-70
2023/12/16 05:39:05;;;;;;;3.28;0.60;;;;;;;0.98;78.83;101900.91;5083602;28;20052;-69
2023/12/16 05:41:32;;;;;;;5.90;0.95;;;;;;;0.97;78.36;101894.88;5090931;28;20044;-69
2023/12/16 05:43:59;;;;;;;1.58;0.47;;;;;;;0.98;78.26;101901.78;5090954;28;20322;-69
2023/12/16 05:46:26;;;;;;;5.47;0.60;;;;;;;0.98;78.72;101898.34;5087164;28;20074;-69
2023/12/16 05:48:53;;;;;;;7.25;0.68;;;;;;;0.98;78.38;101901.78;5087513;28;20079;-70
2023/12/16 05:51:21;;;;;;;4.93;1.00;;;;;;;0.99;78.46;101903.56;5090786;28;20487;-73
2023/12/16 05:53:48;;;;;;;7.93;0.70;;;;;;;1.00;78.76;101899.28;5085061;28;20124;-73
2023/12/16 05:56:15;;;;;;;2.75;0.45;;;;;;;0.99;78.75;101885.53;5084464;28;20488;-73
2023/12/16 05:58:42;;;;;;;5.60;0.80;;;;;;;1.01;79.02;101891.56;5091359;28;20482;-73
2023/12/16 06:01:09;;;;;;;3.45;0.55;;;;;;;1.01;78.52;101896.72;5090418;28;20106;-73
2023/12/16 06:03:35;;;;;;;6.68;0.45;;;;;;;0.99;78.93;101882.94;5085289;28;20067;-73
2023/12/16 06:06:02;;;;;;;3.72;0.50;;;;;;;1.01;78.73;101888.13;5086878;28;20104;-72
2023/12/16 06:08:31;;;;;;;5.82;0.70;;;;;;;1.03;79.06;101884.78;5084092;28;20456;-73
2023/12/16 06:10:58;;;;;;;7.15;0.68;;;;;;;1.05;78.82;101881.38;5084793;28;20041;-73
2023/12/16 06:13:25;;;;;;;4.85;0.50;;;;;;;1.06;78.89;101883.16;5088866;28;20106;-73
2023/12/16 06:15:52;;;;;;;8.30;0.60;;;;;;;1.06;79.11;101885.72;5089545;28;20047;-73
2023/12/16 06:18:19;;;;;;;3.72;0.80;;;;;;;1.06;78.99;101876.28;5083772;28;20091;-73
2023/12/16 06:20:46;;;;;;;6.25;0.70;;;;;;;1.08;78.66;101891.78;5085240;28;20036;-73
2023/12/16 06:23:12;;;;;;;6.57;0.80;;;;;;;1.08;78.76;101876.31;5086007;28;20070;-73
2023/12/16 06:25:41;;;;;;;5.95;1.48;;;;;;;1.09;79.23;101885.81;5086538;28;20563;-73
2023/12/16 06:28:08;;;;;;;3.28;0.60;;;;;;;1.06;79.40;101886.59;5092844;28;20084;-73
2023/12/16 06:30:35;;;;;;;9.18;1.23;;;;;;;1.10;79.35;101897.88;5079566;28;20532;-73
2023/12/16 06:33:02;;;;;;;8.77;0.85;;;;;;;1.12;79.39;101901.38;5084301;28;20062;-73
2023/12/16 06:35:29;;;;;;;9.63;1.02;;;;;;;1.09;79.45;101909.03;5091324;28;20493;-73
2023/12/16 06:37:56;;;;;;;5.53;1.00;;;;;;;1.12;79.33;101909.13;5085014;28;20082;-74
2023/12/16 06:40:24;;;;;;;12.95;1.05;;;;;;;1.09;79.13;101915.06;5082607;28;20094;-75
2023/12/16 06:42:52;;;;;;;6.00;0.80;;;;;;;1.14;79.26;101922.94;5083792;28;20410;-75
2023/12/16 06:45:19;;;;;;;9.93;1.02;;;;;;;1.14;79.16;101915.22;5081777;28;20458;-76
2023/12/16 06:47:46;;;;;;;7.15;2.83;;;;;;;1.14;79.61;101908.34;5086123;28;20102;-76
2023/12/16 06:50:14;;;;;;;9.30;1.02;;;;;;;1.15;79.12;101919.53;5081117;28;20075;-76
2023/12/16 06:52:41;;;;;;;6.72;0.90;;;;;;;1.14;79.45;101916.09;5082775;28;20413;-76
2023/12/16 06:55:09;;;;;;;4.28;0.90;;;;;;;1.16;79.61;101911.88;5088574;28;20083;-76
2023/12/16 06:57:37;;;;;;;11.02;1.00;;;;;;;1.17;79.62;101908.47;5085516;28;20040;-75
2023/12/16 07:00:06;;;;;;;9.30;1.25;;;;;;;1.18;79.52;101901.59;5083543;28;20048;-70
2023/12/16 07:02:33;;;;;;;14.98;1.55;;;;;;;1.17;79.57;101892.13;5086206;28;20051;-70
2023/12/16 07:05:00;;;;;;;10.32;0.85;;;;;;;1.18;79.73;101888.72;5084071;28;20049;-69
2023/12/16 07:07:28;;;;;;;13.95;1.35;;;;;;;1.19;79.64;101896.50;5082041;28;20127;-70
2023/12/16 07:09:55;;;;;;;17.05;1.80;;;;;;;1.18;79.50;101889.56;5087020;28;20040;-70
2023/12/16 07:12:21;;;;;;;13.35;0.90;;;;;;;1.18;79.40;101878.41;5091534;28;20076;-70
2023/12/16 07:14:48;;;;;;;5.75;0.90;;;;;;;1.20;79.41;101882.78;5077460;28;20076;-70
2023/12/16 07:17:17;;;;;;;5.78;0.80;;;;;;;1.20;79.58;101879.34;5088059;28;20090;-70
2023/12/16 07:19:44;;;;;;;9.90;0.73;;;;;;;1.21;79.62;101881.94;5090548;28;20068;-71
2023/12/16 07:22:11;;;;;;;9.70;0.80;;;;;;;1.21;79.68;101876.78;5091799;28;20482;-70
2023/12/16 07:24:38;;;;;;;9.40;0.95;;;;;;;1.23;79.36;101867.41;5086394;28;20079;-70
2023/12/16 07:27:06;;;;;;;12.27;1.02;;;;;;;1.23;79.34;101866.53;5076084;28;20052;-70
2023/12/16 07:29:34;;;;;;;9.50;0.80;;;;;;;1.23;79.58;101851.94;5092609;28;20071;-70
2023/12/16 07:32:01;;;;;;;12.38;0.63;;;;;;;1.25;79.56;101849.44;5086167;28;20048;-70
2023/12/16 07:34:30;;;;;;;10.52;0.93;;;;;;;1.27;79.56;101855.50;5093561;28;20056;-71
2023/12/16 07:36:57;;;;;;;5.53;1.35;;;;;;;1.26;79.67;101848.59;5093877;28;20134;-71
2023/12/16 07:39:24;;;;;;;9.80;0.73;;;;;;;1.27;79.42;101849.47;5093511;28;20048;-71
2023/12/16 07:41:51;;;;;;;8.52;0.68;;;;;;;1.28;79.61;101852.09;5093574;28;20428;-71
2023/12/16 07:44:18;;;;;;;8.90;1.70;;;;;;;1.29;79.56;101853.84;5097207;28;20075;-71
2023/12/16 07:46:45;;;;;;;12.05;0.70;;;;;;;1.29;79.79;101851.28;5097249;28;20071;-71
2023/12/16 07:49:12;;;;;;;10.07;1.35;;;;;;;1.30;79.64;101853.00;5096756;28;20079;-71
2023/12/16 07:51:43;;;;;;;6.95;0.88;;;;;;;1.25;79.87;101828.81;5097282;28;20076;-73
2023/12/16 07:54:11;;;;;;;12.65;1.98;;;;;;;1.32;79.83;101835.91;5097361;28;20052;-73
2023/12/16 07:56:38;;;;;;;11.45;0.80;;;;;;;1.33;79.49;101834.19;5096872;28;20105;-73
2023/12/16 07:59:04;;;;;;;9.07;1.33;;;;;;;1.34;79.50;101823.94;5098482;28;20110;-73
2023/12/16 08:01:31;;;;;;;8.73;1.05;;;;;;;1.34;79.64;101823.94;5097801;28;20044;-73
2023/12/16 08:03:58;;;;;;;10.40;0.90;;;;;;;1.35;79.72;101820.53;5091074;28;20587;-73
2023/12/16 08:06:25;;;;;;;6.60;0.80;;;;;;;1.37;79.81;101815.44;5091183;28;20051;-73
2023/12/16 08:08:54;;;;;;;3.80;1.42;;;;;;;1.32;79.96;101804.09;5083661;28;20063;-73
2023/12/16 08:11:21;;;;;;;9.98;2.03;;;;;;;1.38;79.91;101819.75;5090936;28;20071;-73
2023/12/16 08:13:48;;;;;;;5.32;0.80;;;;;;;1.39;79.40;101816.31;5095584;28;20482;-73
2023/12/16 08:16:15;;;;;;;10.55;0.70;;;;;;;1.39;79.94;101806.91;5094170;28;20079;-73
2023/12/16 08:18:42;;;;;;;7.90;0.85;;;;;;;1.41;79.81;101799.22;5086696;28;20070;-74
2023/12/16 08:21:09;;;;;;;9.35;0.85;;;;;;;1.42;79.58;101808.69;5087613;28;20113;-74
2023/12/16 08:23:35;;;;;;;21.35;1.13;;;;;;;1.43;79.82;101801.00;5094988;28;20083;-74
2023/12/16 08:26:09;;;;;;;8.52;1.90;;;;;;;1.41;80.22;101784.59;5086210;28;20076;-73
2023/12/16 08:28:37;;;;;;;16.55;1.10;;;;;;;1.45;80.01;101783.91;5094292;28;20094;-73
2023/12/16 08:31:05;;;;;;;5.72;0.70;;;;;;;1.45;80.15;101781.31;5090258;28;20068;-73
2023/12/16 08:33:32;;;;;;;15.23;2.65;;;;;;;1.48;80.03;101778.81;5086856;28;20409;-73
2023/12/16 08:35:59;;;;;;;11.18;0.95;;;;;;;1.50;80.19;101775.41;5092399;28;20071;-74
2023/12/16 08:38:26;;;;;;;13.45;0.90;;;;;;;1.51;80.21;101774.59;5095402;28;20142;-74
2023/12/16 08:40:55;;;;;;;8.48;1.45;;;;;;;1.52;80.20;101769.47;5090227;28;20080;-75
2023/12/16 08:43:24;;;;;;;12.50;0.90;;;;;;;1.54;80.24;101766.97;5089798;28;20459;-73
2023/12/16 08:45:51;;;;;;;13.10;1.85;;;;;;;1.56;80.24;101770.44;5088789;28;20050;-74
2023/12/16 08:48:18;;;;;;;10.95;0.80;;;;;;;1.57;80.04;101759.31;5082160;28;20056;-75
2023/12/16 08:50:45;;;;;;;14.38;1.85;;;;;;;1.58;80.40;101750.72;5089658;28;20472;-75
2023/12/16 08:53:13;;;;;;;13.25;0.80;;;;;;;1.59;80.70;101737.91;5089124;28;20082;-74
2023/12/16 08:55:41;;;;;;;14.10;0.93;;;;;;;1.60;80.57;101744.78;5084480;28;20066;-75
2023/12/16 08:58:08;;;;;;;11.95;0.93;;;;;;;1.61;80.78;101736.22;5087802;28;20084;-75
2023/12/16 09:00:37;;;;;;;7.63;0.88;;;;;;;1.63;80.92;101725.94;5090026;28;20044;-75
2023/12/16 09:03:04;;;;;;;8.25;0.95;;;;;;;1.64;80.77;101723.41;5092308;28;20470;-76
2023/12/16 09:05:31;;;;;;;13.52;1.10;;;;;;;1.66;80.77;101729.50;5083533;28;20080;-76
2023/12/16 09:07:58;;;;;;;16.48;2.00;;;;;;;1.68;80.95;101726.97;5087314;28;20044;-76
2023/12/16 09:10:25;;;;;;;17.92;1.27;;;;;;;1.68;80.90;101729.53;5077188;28;20076;-76
2023/12/16 09:12:52;;;;;;;17.23;2.65;;;;;;;1.70;81.35;101725.28;5079223;28;20076;-76
2023/12/16 09:15:19;;;;;;;15.70;1.42;;;;;;;1.73;81.17;101724.50;5082522;28;20083;-76
2023/12/16 09:17:48;;;;;;;13.68;1.67;;;;;;;1.76;81.31;101724.59;5091145;28;20075;-76
2023/12/16 09:20:15;;;;;;;19.17;1.00;;;;;;;1.76;81.25;101730.66;5086634;28;20048;-77
2023/12/16 09:22:42;;;;;;;9.98;1.27;;;;;;;1.78;81.59;101731.53;5092585;28;20095;-77
2023/12/16 09:25:10;;;;;;;12.00;2.35;;;;;;;1.79;81.22;101720.41;5087916;28;20079;-77
2023/12/16 09:27:37;;;;;;;13.35;0.93;;;;;;;1.80;81.33;101714.41;5092426;28;20075;-77
2023/12/16 09:30:04;;;;;;;15.68;1.15;;;;;;;1.83;81.56;101722.22;5079080;28;20072;-77
2023/12/16 09:32:32;;;;;;;18.00;1.75;;;;;;;1.84;81.36;101713.66;5083196;28;20083;-77
2023/12/16 09:35:01;;;;;;;10.27;1.05;;;;;;;1.87;81.33;101708.56;5086996;28;20131;-77
2023/12/16 09:37:28;;;;;;;14.60;1.58;;;;;;;1.87;81.40;101698.25;5085913;28;20114;-77
2023/12/16 09:39:55;;;;;;;22.45;1.17;;;;;;;1.89;81.60;101681.09;5086440;28;20572;-77
2023/12/16 09:42:25;;;;;;;10.70;1.80;;;;;;;1.90;81.63;101680.31;5087880;28;20089;-78
2023/12/16 09:44:57;;;;;;;10.57;2.15;;;;;;;1.92;81.50;101665.72;5089422;28;20079;-77
2023/12/16 09:47:25;;;;;;;10.77;1.38;;;;;;;1.94;81.32;101665.75;5086257;28;20056;-78
2023/12/16 09:49:53;;;;;;;17.80;2.90;;;;;;;1.96;81.37;101650.31;5090825;28;20471;-78
2023/12/16 09:52:21;;;;;;;17.58;1.70;;;;;;;1.98;81.44;101648.66;5087830;28;20055;-77
2023/12/16 09:54:48;;;;;;;18.17;3.10;;;;;;;1.98;81.63;101644.34;5086707;28;20152;-77
2023/12/16 09:57:20;;;;;;;20.75;2.08;;;;;;;1.98;81.40;101643.47;5087294;28;20083;-77
2023/12/16 09:59:48;;;;;;;16.80;2.08;;;;;;;2.01;81.38;101644.44;5085506;28;20047;-77
2023/12/16 10:02:22;;;;;;;14.52;1.73;;;;;;;2.03;81.47;101637.59;5088146;28;20055;-78
2023/12/16 10:04:51;;;;;;;17.55;2.58;;;;;;;2.04;81.31;101644.50;5087312;28;20082;-77
2023/12/16 10:07:18;;;;;;;12.32;2.15;;;;;;;2.06;81.29;101642.84;5083912;28;20115;-77
2023/12/16 10:09:47;;;;;;;13.18;1.60;;;;;;;2.06;81.42;101637.69;5084910;28;20497;-76
2023/12/16 10:12:14;;;;;;;21.83;2.10;;;;;;;2.08;81.65;101637.75;5081090;28;20504;-76
2023/12/16 10:14:48;;;;;;;17.27;3.00;;;;;;;2.09;81.44;101632.59;5086963;28;20075;-76
2023/12/16 10:17:17;;;;;;;24.48;2.65;;;;;;;2.09;81.51;101629.16;5083476;28;20422;-76
2023/12/16 10:19:44;;;;;;;22.48;2.20;;;;;;;2.11;81.27;101623.19;5081594;28;20050;-76
2023/12/16 10:22:13;;;;;;;15.70;1.65;;;;;;;2.12;81.38;101616.31;5084886;28;20040;-76
2023/12/16 10:24:41;;;;;;;15.13;1.08;;;;;;;2.14;81.60;101606.91;5088430;28;20044;-76
2023/12/16 10:27:12;;;;;;;11.07;1.33;;;;;;;2.16;81.46;101602.69;5082552;28;20048;-76
2023/12/16 10:29:40;;;;;;;15.50;1.65;;;;;;;2.18;81.43;101592.38;5083816;28;20036;-74
2023/12/16 10:32:09;;;;;;;13.68;1.38;;;;;;;2.20;81.50;101577.78;5080947;28;20048;-75
2023/12/16 10:34:36;;;;;;;12.07;1.40;;;;;;;2.21;81.74;101575.22;5080852;28;20086;-74
2023/12/16 10:37:04;;;;;;;16.25;1.45;;;;;;;2.23;81.71;101567.53;5088783;28;20456;-74
2023/12/16 10:39:31;;;;;;;18.10;1.83;;;;;;;2.24;81.68;101567.56;5081667;28;20501;-75
2023/12/16 10:41:59;;;;;;;17.95;1.15;;;;;;;2.26;81.56;101565.91;5087103;28;20095;-74
2023/12/16 10:44:27;;;;;;;12.57;2.40;;;;;;;2.24;81.58;101557.22;5085416;28;20493;-74
2023/12/16 10:46:55;;;;;;;10.82;1.05;;;;;;;2.29;81.68;101558.22;5084631;28;20494;-74
2023/12/16 10:49:30;;;;;;;10.15;1.23;;;;;;;2.27;81.72;101539.25;5086771;28;20537;-74
2023/12/16 10:52:07;;;;;;;21.70;2.40;;;;;;;2.33;81.58;101534.25;5083540;28;20072;-74
2023/12/16 10:54:40;;;;;;;17.65;1.15;;;;;;;2.28;81.49;101530.66;5084105;28;20067;-75
2023/12/16 10:57:29;;;;;;;18.30;1.33;;;;;;;2.32;81.42;101516.97;5086274;28;20044;-74
2023/12/16 11:00:05;;;;;;;11.30;1.02;;;;;;;2.37;81.73;101517.97;5081852;28;20071;-74
2023/12/16 11:02:33;;;;;;;12.52;1.17;;;;;;;2.38;81.66;101504.19;5084373;28;20457;-74
2023/12/16 11:05:07;;;;;;;11.30;1.42;;;;;;;2.41;81.62;101502.53;5086658;28;20068;-74
2023/12/16 11:07:38;;;;;;;16.40;0.90;;;;;;;2.39;81.93;101502.53;5084047;28;20071;-75
2023/12/16 11:10:06;;;;;;;11.40;0.90;;;;;;;2.37;81.74;101484.38;5082324;28;20052;-74
2023/12/16 11:12:34;;;;;;;9.25;1.00;;;;;;;2.44;81.59;101490.56;5089379;28;20124;-74
2023/12/16 11:15:03;;;;;;;12.02;0.57;;;;;;;2.45;81.67;101491.44;5089304;28;20097;-74
2023/12/16 11:17:34;;;;;;;14.32;0.70;;;;;;;2.45;81.68;101486.28;5083025;28;20111;-74
2023/12/16 11:20:06;;;;;;;10.07;1.88;;;;;;;2.48;81.79;101492.38;5086976;28;20072;-72
2023/12/16 11:22:33;;;;;;;16.45;1.15;;;;;;;2.43;81.60;101473.31;5085666;28;20052;-72
2023/12/16 11:25:02;;;;;;;18.02;1.67;;;;;;;2.45;81.72;101466.50;5091987;28;20044;-73
2023/12/16 11:27:29;;;;;;;10.55;1.77;;;;;;;2.52;81.90;101467.47;5084310;28;20132;-72
2023/12/16 11:29:57;;;;;;;11.45;1.73;;;;;;;2.53;81.80;101464.06;5089751;28;20048;-72
2023/12/16 11:32:26;;;;;;;4.70;0.98;;;;;;;2.53;82.20;101459.78;5094644;28;20074;-73